createdAt,value
2023-04-08T00:02:17.802Z,69.57
2023-04-08T00:07:19.267Z,69.73
2023-04-08T00:12:21.109Z,69.61
2023-04-08T00:17:22.459Z,69.73
2023-04-08T00:22:24.025Z,69.92
2023-04-08T00:27:25.740Z,69.99
2023-04-08T00:32:28.199Z,70.00
2023-04-08T00:37:29.901Z,69.80
2023-04-08T00:42:31.283Z,70.32
2023-04-08T00:47:32.701Z,69.91
2023-04-08T00:52:34.124Z,70.04
2023-04-08T00:57:36.366Z,70.03
2023-04-08T01:02:46.747Z,70.48
2023-04-08T01:07:49.696Z,70.54
2023-04-08T01:13:12.107Z,70.70
2023-04-08T01:18:15.681Z,70.66
2023-04-08T01:23:59.074Z,70.15
2023-04-08T01:29:03.109Z,70.75
2023-04-08T01:34:06.445Z,70.88
2023-04-08T01:39:08.353Z,71.02
2023-04-08T01:44:11.560Z,70.95
2023-04-08T01:49:14.483Z,71.26
2023-04-08T01:54:16.132Z,70.83
2023-04-08T01:59:21.663Z,70.71
2023-04-08T02:04:23.129Z,71.19
2023-04-08T02:09:25.252Z,70.50
2023-04-08T02:14:26.968Z,71.14
2023-04-08T02:19:44.364Z,71.29
2023-04-08T02:24:46.845Z,71.24
2023-04-08T02:29:50.634Z,70.74
2023-04-08T02:34:52.571Z,71.26
2023-04-08T02:39:54.018Z,71.56
2023-04-08T02:44:56.932Z,71.32
2023-04-08T02:49:58.258Z,71.63
2023-04-08T02:54:59.588Z,71.94
2023-04-08T03:00:01.073Z,72.00
2023-04-08T03:05:03.197Z,72.35
2023-04-08T03:10:05.436Z,71.56
2023-04-08T03:15:07.664Z,72.14
2023-04-08T03:20:09.883Z,72.25
2023-04-08T03:25:11.841Z,71.67
2023-04-08T03:30:13.284Z,72.21
2023-04-08T03:35:15.070Z,72.47
2023-04-08T03:40:16.629Z,71.61
2023-04-08T03:45:18.007Z,72.27
2023-04-08T03:50:19.384Z,72.27
2023-04-08T03:55:20.785Z,72.08
2023-04-08T04:00:22.264Z,71.67
2023-04-08T04:05:23.646Z,72.33
2023-04-08T04:10:25.269Z,71.78
2023-04-08T04:15:26.670Z,71.67
2023-04-08T04:20:30.163Z,71.62
2023-04-08T04:25:31.695Z,71.92
2023-04-08T04:30:33.019Z,71.93
2023-04-08T04:35:34.711Z,72.10
2023-04-08T04:40:36.818Z,71.87
2023-04-08T04:45:38.325Z,71.98
2023-04-08T04:50:39.795Z,71.08
2023-04-08T04:55:41.198Z,71.54
2023-04-08T05:00:42.532Z,71.10
2023-04-08T05:05:44.044Z,71.87
2023-04-08T05:10:45.787Z,71.57
2023-04-08T05:15:47.197Z,71.01
2023-04-08T05:20:48.669Z,70.97
2023-04-08T05:25:50.345Z,71.46
2023-04-08T05:30:52.720Z,71.55
2023-04-08T05:35:54.147Z,71.29
2023-04-08T05:40:55.597Z,72.00
2023-04-08T05:45:56.934Z,72.19
2023-04-08T05:50:58.267Z,71.89
2023-04-08T05:55:59.606Z,72.01
2023-04-08T06:01:00.978Z,71.69
2023-04-08T06:06:02.342Z,71.51
2023-04-08T06:11:06.713Z,71.85
2023-04-08T06:16:11.190Z,71.88
2023-04-08T06:21:12.697Z,71.50
2023-04-08T06:26:14.015Z,72.52
2023-04-08T06:36:33.116Z,71.54
2023-04-08T06:41:42.584Z,71.49
2023-04-08T06:46:44.533Z,71.75
2023-04-08T06:51:47.874Z,71.41
2023-04-08T06:56:49.560Z,71.65
2023-04-08T07:01:51.369Z,70.86
2023-04-08T07:06:52.994Z,70.65
2023-04-08T07:11:54.374Z,70.64
2023-04-08T07:16:56.213Z,70.85
2023-04-08T07:21:57.900Z,70.39
2023-04-08T07:26:59.255Z,69.85
2023-04-08T07:32:00.705Z,69.62
2023-04-08T07:37:02.766Z,69.31
2023-04-08T07:42:04.082Z,68.59
2023-04-08T07:47:05.441Z,68.15
2023-04-08T07:52:06.893Z,67.86
2023-04-08T07:57:08.229Z,67.60
2023-04-08T08:02:09.758Z,67.61
2023-04-08T08:07:11.317Z,66.92
2023-04-08T08:12:12.675Z,67.13
2023-04-08T08:17:14.368Z,67.13
2023-04-08T08:22:15.917Z,67.01
2023-04-08T08:27:17.235Z,66.69
2023-04-08T08:32:18.935Z,66.24
2023-04-08T08:37:20.360Z,66.38
2023-04-08T08:42:25.897Z,66.23
2023-04-08T08:47:27.665Z,66.70
2023-04-08T09:03:31.189Z,66.07
2023-04-08T09:08:34.735Z,65.24
2023-04-08T09:13:39.322Z,64.03
2023-04-08T09:18:44.230Z,63.35
2023-04-08T09:23:51.172Z,62.39
2023-04-08T09:29:25.565Z,61.65
2023-04-08T09:34:32.493Z,61.34
2023-04-08T09:39:34.140Z,60.54
2023-04-08T09:44:38.027Z,60.03
2023-04-08T09:49:51.631Z,59.62
2023-04-08T09:54:59.741Z,58.90
2023-04-08T10:10:37.052Z,58.12
2023-04-08T10:15:40.744Z,57.52
2023-04-08T10:20:43.122Z,56.55
2023-04-08T10:25:45.907Z,56.16
2023-04-08T10:30:48.540Z,56.31
2023-04-08T10:35:53.811Z,56.07
2023-04-08T10:40:55.230Z,55.88
2023-04-08T10:45:56.689Z,55.43
2023-04-08T10:51:05.780Z,54.27
2023-04-08T10:56:17.709Z,54.44
2023-04-08T11:01:19.650Z,54.55
2023-04-08T11:06:21.113Z,54.55
2023-04-08T11:11:23.761Z,54.15
2023-04-08T11:16:27.806Z,54.12
2023-04-08T11:21:30.300Z,54.22
2023-04-08T11:26:31.857Z,53.83
2023-04-08T11:31:34.193Z,53.41
2023-04-08T11:36:36.782Z,53.51
2023-04-08T11:41:39.553Z,53.50
2023-04-08T11:46:42.241Z,53.46
2023-04-08T11:52:00.181Z,53.19
2023-04-08T11:57:03.189Z,53.64
2023-04-08T12:02:04.819Z,53.16
2023-04-08T12:07:06.239Z,52.60
2023-04-08T12:12:07.560Z,52.92
2023-04-08T12:17:08.875Z,52.49
2023-04-08T12:22:10.311Z,52.80
2023-04-08T12:27:11.735Z,52.55
2023-04-08T12:32:13.380Z,52.40
2023-04-08T12:37:14.779Z,52.01
2023-04-08T12:42:16.527Z,52.27
2023-04-08T12:47:17.987Z,52.57
2023-04-08T12:52:19.669Z,52.39
2023-04-08T12:57:21.293Z,51.58
2023-04-08T13:02:22.807Z,51.09
2023-04-08T13:07:24.326Z,50.25
2023-04-08T13:12:25.633Z,49.60
2023-04-08T13:17:27.885Z,49.87
2023-04-08T13:22:29.254Z,50.08
2023-04-08T13:27:30.642Z,49.86
2023-04-08T13:32:32.027Z,50.27
2023-04-08T13:37:33.352Z,50.65
2023-04-08T13:42:34.833Z,50.61
2023-04-08T13:47:37.926Z,50.74
2023-04-08T13:52:39.486Z,50.55
2023-04-08T13:57:41.033Z,50.98
2023-04-08T14:02:42.481Z,51.01
2023-04-08T14:07:43.816Z,51.40
2023-04-08T14:12:46.582Z,51.06
2023-04-08T14:17:48.350Z,51.00
2023-04-08T14:22:49.823Z,51.31
2023-04-08T14:27:58.519Z,51.65
2023-04-08T14:33:01.115Z,51.76
2023-04-08T14:38:02.520Z,51.75
2023-04-08T14:43:04.002Z,52.38
2023-04-08T14:48:05.826Z,52.66
2023-04-08T14:53:07.424Z,52.39
2023-04-08T14:58:08.754Z,52.43
2023-04-08T15:03:13.381Z,51.52
2023-04-08T15:08:15.557Z,50.81
2023-04-08T15:13:17.126Z,50.89
2023-04-08T15:18:18.491Z,50.79
2023-04-08T15:23:19.818Z,50.45
2023-04-08T15:28:21.166Z,50.48
2023-04-08T15:33:22.483Z,50.90
2023-04-08T15:38:23.849Z,50.89
2023-04-08T15:43:25.267Z,51.37
2023-04-08T15:48:26.609Z,51.34
2023-04-08T15:53:28.062Z,51.69
2023-04-08T15:58:29.849Z,51.92
2023-04-08T16:03:31.686Z,52.07
2023-04-08T16:08:34.624Z,52.26
2023-04-08T16:13:38.975Z,52.65
2023-04-08T16:18:41.756Z,52.75
2023-04-08T16:23:43.088Z,53.32
2023-04-08T16:28:44.493Z,53.42
2023-04-08T16:33:45.859Z,53.38
2023-04-08T16:38:47.223Z,53.53
2023-04-08T16:43:48.678Z,53.71
2023-04-08T16:48:50.382Z,54.20
2023-04-08T16:53:52.105Z,54.08
2023-04-08T16:58:53.597Z,53.84
2023-04-08T17:03:55.371Z,53.57
2023-04-08T17:08:57.410Z,53.32
2023-04-08T17:13:58.946Z,53.09
2023-04-08T17:19:00.376Z,52.44
2023-04-08T17:24:01.717Z,52.14
2023-04-08T17:29:03.466Z,51.64
2023-04-08T17:34:04.927Z,51.55
2023-04-08T17:39:06.331Z,51.74
2023-04-08T17:44:07.981Z,51.79
2023-04-08T17:49:12.658Z,51.94
2023-04-08T17:54:14.067Z,51.85
2023-04-08T17:59:15.719Z,51.77
2023-04-08T18:04:17.467Z,51.70
2023-04-08T18:09:18.855Z,52.04
2023-04-08T18:14:20.272Z,51.90
2023-04-08T18:19:21.623Z,52.34
2023-04-08T18:24:23.467Z,52.42
2023-04-08T18:29:24.902Z,52.44
2023-04-08T18:34:26.680Z,52.80
2023-04-08T18:39:28.019Z,52.65
2023-04-08T18:44:29.358Z,53.46
2023-04-08T18:49:33.348Z,53.41
2023-04-08T18:54:35.711Z,53.53
2023-04-08T18:59:37.117Z,53.46
2023-04-08T19:04:38.528Z,53.66
2023-04-08T19:09:40.021Z,53.45
2023-04-08T19:14:42.126Z,54.25
2023-04-08T19:19:43.532Z,53.87
2023-04-08T19:24:44.877Z,54.12
2023-04-08T19:29:46.262Z,53.99
2023-04-08T19:34:48.371Z,53.81
2023-04-08T19:39:49.709Z,53.85
2023-04-08T19:44:51.545Z,54.12
2023-04-08T19:49:52.891Z,54.46
2023-04-08T19:54:54.266Z,54.23
2023-04-08T19:59:55.670Z,54.78
2023-04-08T20:04:57.737Z,54.51
2023-04-08T20:09:59.161Z,54.53
2023-04-08T20:15:01.092Z,54.24
2023-04-08T20:20:03.342Z,54.56
2023-04-08T20:25:05.557Z,54.49
2023-04-08T20:30:07.688Z,54.96
2023-04-08T20:35:09.202Z,55.20
2023-04-08T20:40:10.950Z,55.30
2023-04-08T20:45:12.449Z,55.43
2023-04-08T20:50:13.870Z,55.41
2023-04-08T20:55:15.427Z,55.42
2023-04-08T21:00:17.228Z,55.83
2023-04-08T21:05:18.678Z,55.58
2023-04-08T21:10:20.177Z,55.95
2023-04-08T21:15:22.242Z,56.01
2023-04-08T21:20:23.638Z,55.93
2023-04-08T21:25:26.489Z,56.11
2023-04-08T21:30:27.898Z,56.16
2023-04-08T21:35:29.243Z,56.01
2023-04-08T21:40:30.627Z,56.12
2023-04-08T21:45:31.959Z,56.28
2023-04-08T21:50:33.312Z,56.37
2023-04-08T21:55:34.649Z,56.07
2023-04-08T22:00:35.994Z,56.31
2023-04-08T22:05:37.442Z,56.34
2023-04-08T22:10:38.818Z,56.21
2023-04-08T22:15:40.193Z,56.42
2023-04-08T22:20:41.586Z,56.46
2023-04-08T22:25:43.049Z,56.59
2023-04-08T22:30:44.468Z,56.33
2023-04-08T22:35:46.161Z,56.33
2023-04-08T22:40:47.505Z,56.58
2023-04-08T22:45:48.901Z,56.15
2023-04-08T22:50:50.307Z,56.12
2023-04-08T22:55:51.665Z,56.09
2023-04-08T23:00:52.980Z,56.00
2023-04-08T23:05:54.312Z,56.50
2023-04-08T23:10:55.675Z,56.24
2023-04-08T23:15:57.212Z,56.40
2023-04-08T23:20:58.639Z,56.36
2023-04-08T23:26:00.044Z,56.49
2023-04-08T23:31:03.939Z,56.53
2023-04-08T23:36:09.361Z,56.75
2023-04-08T23:41:10.895Z,56.82
2023-04-08T23:46:12.286Z,56.99
2023-04-08T23:51:13.698Z,56.68
2023-04-08T23:56:15.244Z,57.05
